Time;durP1;ratioP1;P1;durP2;ratioP2;P2;SDS_P1;SDS_P2;PMS_P1;PMS_P2;Temp;Humidity;BMP_temperature;BMP_pressure;BME280_temperature;BME280_humidity;BME280_pressure;Samples;Min_cycle;Max_cycle;Signal;HPM_P1;HPM_P2
2022/03/27 00:01:35;;;;;;;16.23;6.82;;;3.40;99.90;;;;;;4971374;28;20095;-45
2022/03/27 00:04:01;;;;;;;11.68;6.18;;;3.40;99.90;;;;;;4971509;28;20041;-48
2022/03/27 00:06:28;;;;;;;10.45;6.03;;;3.40;99.90;;;;;;4972154;28;20035;-46
2022/03/27 00:08:53;;;;;;;8.52;5.78;;;3.40;99.90;;;;;;4971612;28;20066;-48
2022/03/27 00:11:26;;;;;;;8.88;5.80;;;3.40;99.90;;;;;;4971499;28;20050;-47
2022/03/27 00:14:01;;;;;;;9.02;6.60;;;3.40;99.90;;;;;;4967428;28;20038;-48
2022/03/27 00:16:27;;;;;;;14.25;7.03;;;3.30;99.90;;;;;;4971512;28;20030;-48
2022/03/27 00:18:53;;;;;;;10.80;5.72;;;3.30;99.90;;;;;;4971369;28;20045;-48
2022/03/27 00:21:21;;;;;;;11.10;5.85;;;3.30;99.90;;;;;;4971903;28;20034;-46
2022/03/27 00:23:48;;;;;;;8.80;6.22;;;3.20;99.90;;;;;;4971336;28;20038;-48
2022/03/27 00:26:15;;;;;;;11.40;6.18;;;3.20;99.90;;;;;;4971389;28;20474;-49
2022/03/27 00:28:40;;;;;;;13.60;6.97;;;3.20;99.90;;;;;;4970097;28;20034;-46
2022/03/27 00:31:09;;;;;;;10.32;6.47;;;3.20;99.90;;;;;;4970084;28;20038;-47
2022/03/27 00:33:35;;;;;;;11.07;6.10;;;3.20;99.90;;;;;;4971109;28;20037;-53
2022/03/27 00:36:03;;;;;;;9.45;5.30;;;3.10;99.90;;;;;;4969636;28;20181;-46
2022/03/27 00:38:29;;;;;;;7.85;5.68;;;3.10;99.90;;;;;;4969808;28;20597;-49
2022/03/27 00:40:56;;;;;;;10.68;5.75;;;3.10;99.90;;;;;;4971532;28;20043;-47
2022/03/27 00:43:23;;;;;;;12.20;7.13;;;3.10;99.90;;;;;;4970436;28;20041;-48
2022/03/27 00:45:50;;;;;;;8.68;6.57;;;3.10;99.90;;;;;;4970878;28;20035;-48
2022/03/27 00:48:20;;;;;;;8.07;5.75;;;3.00;99.90;;;;;;4971196;28;20029;-49
2022/03/27 00:50:48;;;;;;;10.57;6.88;;;3.00;99.90;;;;;;4969941;28;20031;-48
2022/03/27 00:53:14;;;;;;;12.50;6.18;;;3.00;99.90;;;;;;4969002;28;20027;-46
2022/03/27 00:55:40;;;;;;;13.65;6.57;;;3.00;99.90;;;;;;4971201;28;20038;-49
2022/03/27 00:58:06;;;;;;;14.13;6.95;;;3.00;99.90;;;;;;4968309;28;20039;-46
2022/03/27 01:00:37;;;;;;;11.20;5.65;;;2.90;99.90;;;;;;4966658;28;20031;-46
2022/03/27 01:03:14;;;;;;;15.23;6.13;;;2.90;99.90;;;;;;4963721;28;20175;-50
2022/03/27 01:05:41;;;;;;;9.55;5.47;;;2.90;99.90;;;;;;4959247;28;20502;-47
2022/03/27 01:08:10;;;;;;;10.95;5.95;;;2.90;99.90;;;;;;4969036;28;20125;-49
2022/03/27 01:10:36;;;;;;;12.10;6.18;;;2.90;99.90;;;;;;4970156;28;20521;-48
2022/03/27 01:13:19;;;;;;;10.48;6.80;;;2.80;99.90;;;;;;4969911;28;20043;-48
2022/03/27 01:15:55;;;;;;;11.48;6.30;;;2.80;99.90;;;;;;4953217;28;20174;-47
2022/03/27 01:18:22;;;;;;;9.90;5.95;;;2.80;99.90;;;;;;4970562;28;20050;-47
2022/03/27 01:20:48;;;;;;;14.07;6.85;;;2.80;99.90;;;;;;4969883;28;20061;-46
2022/03/27 01:23:16;;;;;;;16.08;7.80;;;2.80;99.90;;;;;;4970142;28;20065;-51
2022/03/27 01:25:43;;;;;;;12.05;6.38;;;2.80;99.90;;;;;;4969608;28;20046;-50
2022/03/27 01:28:11;;;;;;;15.15;6.25;;;2.70;99.90;;;;;;4970307;28;20081;-48
2022/03/27 01:30:37;;;;;;;12.23;6.53;;;2.70;99.90;;;;;;4969193;28;20030;-48
2022/03/27 01:33:05;;;;;;;18.25;7.53;;;2.70;99.90;;;;;;4970287;28;20073;-50
2022/03/27 01:35:30;;;;;;;16.42;7.45;;;2.70;99.90;;;;;;4970336;28;20059;-47
2022/03/27 01:37:56;;;;;;;15.02;6.72;;;2.70;99.90;;;;;;4970325;28;20069;-49
2022/03/27 01:40:22;;;;;;;20.42;8.30;;;2.60;99.90;;;;;;4970423;28;20046;-48
2022/03/27 01:42:49;;;;;;;15.80;7.88;;;2.60;99.90;;;;;;4970481;28;20031;-48
2022/03/27 01:45:15;;;;;;;14.02;7.82;;;2.60;99.90;;;;;;4970136;28;20482;-46
2022/03/27 01:47:41;;;;;;;19.67;7.53;;;2.60;99.90;;;;;;4969310;28;20023;-47
2022/03/27 01:50:08;;;;;;;11.65;6.90;;;2.60;99.90;;;;;;4969687;28;20109;-46
2022/03/27 01:52:34;;;;;;;15.10;7.75;;;2.60;99.90;;;;;;4970310;28;20027;-49
2022/03/27 01:55:00;;;;;;;10.15;6.75;;;2.60;99.90;;;;;;4970342;28;20031;-49
2022/03/27 01:57:26;;;;;;;22.73;8.52;;;2.60;99.90;;;;;;4969861;28;20046;-50
2022/03/27 01:59:52;;;;;;;16.40;7.25;;;2.60;99.90;;;;;;4969518;28;20081;-48
2022/03/27 02:02:23;;;;;;;11.77;7.15;;;2.50;99.90;;;;;;4969547;28;20445;-47
2022/03/27 02:04:50;;;;;;;12.00;6.95;;;2.50;99.90;;;;;;4971964;28;20046;-49
2022/03/27 02:07:16;;;;;;;16.67;8.18;;;2.50;99.90;;;;;;4973734;28;20035;-48
2022/03/27 02:09:41;;;;;;;14.20;7.38;;;2.50;99.90;;;;;;4973695;28;20033;-47
2022/03/27 02:12:07;;;;;;;15.02;6.45;;;2.40;99.90;;;;;;4973539;28;20042;-48
2022/03/27 02:14:33;;;;;;;9.98;6.30;;;2.30;99.90;;;;;;4971991;28;20046;-47
2022/03/27 02:16:58;;;;;;;10.02;6.10;;;2.30;99.90;;;;;;4973983;28;20034;-48
2022/03/27 02:19:24;;;;;;;12.45;7.15;;;2.30;99.90;;;;;;4973541;28;20031;-48
2022/03/27 02:21:50;;;;;;;10.68;6.60;;;2.30;99.90;;;;;;4973856;28;20033;-49
2022/03/27 02:24:16;;;;;;;11.25;6.22;;;2.20;99.90;;;;;;4973368;28;20035;-45
2022/03/27 02:26:47;;;;;;;10.35;6.75;;;2.20;99.90;;;;;;4973156;28;20417;-48
2022/03/27 02:29:15;;;;;;;11.73;7.03;;;2.10;99.90;;;;;;4972290;28;20401;-47
2022/03/27 02:31:41;;;;;;;14.80;7.38;;;2.20;99.90;;;;;;4973376;28;20050;-47
2022/03/27 02:34:06;;;;;;;9.57;6.97;;;2.20;99.90;;;;;;4972670;28;20031;-46
2022/03/27 02:36:32;;;;;;;11.20;6.63;;;2.10;99.90;;;;;;4973342;28;20035;-50
2022/03/27 02:38:58;;;;;;;9.73;7.15;;;2.10;99.90;;;;;;4973409;28;20038;-47
2022/03/27 02:41:23;;;;;;;8.32;6.45;;;2.10;99.90;;;;;;4972470;28;20022;-48
2022/03/27 02:43:50;;;;;;;10.40;6.57;;;2.10;99.90;;;;;;4973033;28;20027;-48
2022/03/27 02:46:16;;;;;;;14.00;6.57;;;2.10;99.90;;;;;;4972076;28;20031;-47
2022/03/27 02:48:41;;;;;;;7.82;6.38;;;2.10;99.90;;;;;;4973111;28;20126;-50
2022/03/27 02:51:07;;;;;;;13.82;6.18;;;2.00;99.90;;;;;;4972975;28;20378;-48
2022/03/27 02:53:33;;;;;;;6.30;5.70;;;2.00;99.90;;;;;;4973024;28;20367;-51
2022/03/27 02:55:58;;;;;;;4.97;4.47;;;1.90;99.90;;;;;;4972094;28;20022;-48
2022/03/27 02:58:24;;;;;;;4.90;4.45;;;1.90;99.90;;;;;;4973115;28;20045;-50
2022/03/27 03:00:50;;;;;;;13.52;5.70;;;1.90;99.90;;;;;;4972606;28;20457;-48
2022/03/27 03:03:15;;;;;;;5.28;4.78;;;1.90;99.90;;;;;;4972190;28;20493;-47
2022/03/27 03:05:42;;;;;;;7.05;5.05;;;1.90;99.90;;;;;;4972530;28;20031;-48
2022/03/27 03:08:11;;;;;;;5.82;5.22;;;1.80;99.90;;;;;;4972613;28;20496;-47
2022/03/27 03:10:40;;;;;;;6.50;5.47;;;1.80;99.90;;;;;;4972420;28;20170;-47
2022/03/27 03:13:08;;;;;;;6.35;5.72;;;1.80;99.90;;;;;;4972405;28;20071;-48
2022/03/27 03:15:35;;;;;;;11.40;5.63;;;1.80;99.90;;;;;;4971807;28;20084;-47
2022/03/27 03:18:02;;;;;;;6.25;5.65;;;1.80;99.90;;;;;;4971177;28;20061;-47
2022/03/27 03:20:28;;;;;;;7.50;5.53;;;1.80;99.90;;;;;;4971930;28;20107;-47
2022/03/27 03:22:54;;;;;;;5.70;5.05;;;1.70;99.90;;;;;;4971793;28;20111;-47
2022/03/27 03:25:20;;;;;;;5.28;4.50;;;1.70;99.90;;;;;;4954944;28;20035;-49
2022/03/27 03:27:45;;;;;;;5.93;5.15;;;1.70;99.90;;;;;;4972354;28;20074;-48
2022/03/27 03:30:12;;;;;;;6.10;5.50;;;1.70;99.90;;;;;;4970839;28;20524;-47
2022/03/27 03:32:37;;;;;;;5.05;4.57;;;1.70;99.90;;;;;;4972219;28;20031;-47
2022/03/27 03:35:04;;;;;;;5.72;5.10;;;1.60;99.90;;;;;;4972447;28;20057;-52
2022/03/27 03:37:30;;;;;;;5.03;4.53;;;1.60;99.90;;;;;;4971951;28;20031;-46
2022/03/27 03:39:56;;;;;;;5.18;4.70;;;1.60;99.90;;;;;;4972097;28;20118;-49
2022/03/27 03:42:22;;;;;;;6.47;5.85;;;1.60;99.90;;;;;;4970831;28;20126;-48
2022/03/27 03:44:47;;;;;;;7.60;6.15;;;1.60;99.90;;;;;;4971748;28;20091;-47
2022/03/27 03:47:13;;;;;;;6.93;6.22;;;1.60;99.90;;;;;;4972470;28;20031;-46
2022/03/27 03:49:39;;;;;;;6.78;6.05;;;1.60;99.90;;;;;;4972019;28;20033;-48
2022/03/27 03:52:07;;;;;;;7.47;6.15;;;1.60;99.90;;;;;;4972207;28;20023;-48
2022/03/27 03:54:34;;;;;;;10.77;6.05;;;1.60;99.90;;;;;;4971712;28;20030;-48
2022/03/27 03:57:01;;;;;;;7.70;5.47;;;1.50;99.90;;;;;;4972068;28;20035;-48
2022/03/27 03:59:28;;;;;;;6.05;5.50;;;1.50;99.90;;;;;;4971446;28;20027;-47
2022/03/27 04:01:53;;;;;;;11.93;6.03;;;1.50;99.90;;;;;;4971967;28;20034;-46
2022/03/27 04:04:19;;;;;;;8.18;6.88;;;1.50;99.90;;;;;;4970106;28;20030;-49
2022/03/27 04:06:45;;;;;;;8.88;6.07;;;1.50;99.90;;;;;;4971245;28;20022;-48
2022/03/27 04:09:10;;;;;;;8.30;5.93;;;1.50;99.90;;;;;;4972328;28;20055;-49
2022/03/27 04:11:36;;;;;;;6.35;5.75;;;1.50;99.90;;;;;;4971868;28;20037;-48
2022/03/27 04:14:01;;;;;;;6.78;5.78;;;1.50;99.90;;;;;;4971489;28;20118;-47
2022/03/27 04:16:28;;;;;;;9.00;6.18;;;1.40;99.90;;;;;;4971745;28;20267;-47
2022/03/27 04:18:53;;;;;;;8.10;6.07;;;1.40;99.90;;;;;;4970360;28;20031;-47
2022/03/27 04:21:19;;;;;;;6.72;5.80;;;1.40;99.90;;;;;;4971780;28;20084;-47
2022/03/27 04:23:45;;;;;;;7.15;6.43;;;1.40;99.90;;;;;;4970507;28;20046;-47
2022/03/27 04:26:12;;;;;;;6.82;6.10;;;1.40;99.90;;;;;;4971155;28;20031;-46
2022/03/27 04:28:37;;;;;;;7.25;5.80;;;1.40;99.90;;;;;;4969659;28;20034;-47
2022/03/27 04:31:03;;;;;;;6.57;5.97;;;1.40;99.90;;;;;;4971876;28;20110;-48
2022/03/27 04:33:28;;;;;;;7.32;5.90;;;1.40;99.90;;;;;;4969933;28;20037;-47
2022/03/27 04:35:54;;;;;;;6.63;5.32;;;1.30;99.90;;;;;;4970695;28;20034;-46
2022/03/27 04:38:20;;;;;;;6.65;5.47;;;1.30;99.90;;;;;;4971352;28;20037;-48
2022/03/27 04:40:46;;;;;;;6.90;5.32;;;1.30;99.90;;;;;;4971536;28;20035;-46
2022/03/27 04:43:12;;;;;;;6.10;5.50;;;1.30;99.90;;;;;;4970794;28;20042;-47
2022/03/27 04:45:38;;;;;;;5.88;5.25;;;1.30;99.90;;;;;;4971164;28;20448;-48
2022/03/27 04:48:04;;;;;;;5.90;5.30;;;1.30;99.90;;;;;;4971362;28;20126;-49
2022/03/27 04:50:29;;;;;;;6.22;5.13;;;1.30;99.90;;;;;;4971507;28;20035;-51
2022/03/27 04:52:55;;;;;;;6.53;5.45;;;1.30;99.90;;;;;;4971246;28;20033;-48
2022/03/27 04:55:21;;;;;;;7.75;5.75;;;1.30;99.90;;;;;;4969668;28;20031;-46
2022/03/27 04:57:46;;;;;;;9.70;5.50;;;1.20;99.90;;;;;;4971021;28;20522;-47
2022/03/27 05:00:17;;;;;;;5.97;5.38;;;1.20;99.90;;;;;;4970372;28;20042;-47
2022/03/27 05:02:43;;;;;;;16.33;6.35;;;1.20;99.90;;;;;;4969125;28;20125;-47
2022/03/27 05:05:11;;;;;;;6.07;5.47;;;1.20;99.90;;;;;;4969482;28;20408;-47
2022/03/27 05:07:38;;;;;;;11.45;5.88;;;1.20;99.90;;;;;;4969438;28;20428;-47
2022/03/27 05:10:05;;;;;;;7.25;5.75;;;1.20;99.90;;;;;;4970792;28;20437;-49
2022/03/27 05:12:31;;;;;;;6.85;5.78;;;1.20;99.90;;;;;;4969739;28;20031;-48
2022/03/27 05:17:24;;;;;;;5.80;5.13;;;1.20;99.90;;;;;;4988507;28;20054;-49
2022/03/27 05:19:50;;;;;;;6.07;5.47;;;1.20;99.90;;;;;;4989665;28;20027;-47
2022/03/27 05:22:16;;;;;;;6.78;5.55;;;1.20;99.90;;;;;;4989574;28;20476;-49
2022/03/27 05:24:42;;;;;;;5.45;5.00;;;1.20;99.90;;;;;;4989750;28;20546;-48
2022/03/27 05:27:08;;;;;;;6.03;5.43;;;1.20;99.90;;;;;;4990070;28;20405;-49
2022/03/27 05:29:34;;;;;;;6.25;5.65;;;1.20;99.90;;;;;;4990057;28;20018;-47
2022/03/27 05:32:00;;;;;;;5.93;5.38;;;1.20;99.90;;;;;;4988587;28;20116;-47
2022/03/27 05:34:25;;;;;;;7.82;5.82;;;1.30;99.90;;;;;;4989846;28;20042;-47
2022/03/27 05:36:51;;;;;;;10.70;5.65;;;1.30;99.90;;;;;;4988215;28;20038;-52
2022/03/27 05:39:17;;;;;;;6.40;5.80;;;1.30;99.90;;;;;;4992380;28;20417;-51
2022/03/27 05:41:43;;;;;;;5.57;5.07;;;1.30;99.90;;;;;;4992883;28;20022;-47
2022/03/27 05:44:09;;;;;;;20.85;6.78;;;1.30;99.90;;;;;;4993324;28;20088;-46
2022/03/27 05:46:35;;;;;;;25.85;6.47;;;1.30;99.90;;;;;;4993836;28;20416;-48
2022/03/27 05:49:00;;;;;;;6.65;5.90;;;1.30;99.90;;;;;;4993652;28;20037;-45
2022/03/27 05:51:26;;;;;;;5.97;5.40;;;1.30;99.90;;;;;;4993626;28;20054;-46
2022/03/27 05:53:52;;;;;;;6.35;5.75;;;1.30;99.90;;;;;;4993266;28;20026;-47
2022/03/27 05:56:17;;;;;;;5.65;5.15;;;1.40;99.90;;;;;;4993439;28;20038;-48
2022/03/27 05:58:43;;;;;;;6.25;5.65;;;1.40;99.90;;;;;;4993811;28;20030;-48
2022/03/27 06:01:08;;;;;;;6.45;5.85;;;1.40;99.90;;;;;;4993481;28;20504;-49
2022/03/27 06:03:34;;;;;;;9.35;6.32;;;1.40;99.90;;;;;;4992750;28;20564;-47
2022/03/27 06:05:59;;;;;;;6.22;5.63;;;1.50;99.90;;;;;;4992753;28;20026;-46
2022/03/27 06:08:25;;;;;;;6.32;5.72;;;1.50;99.90;;;;;;4997706;28;20501;-46
2022/03/27 06:10:51;;;;;;;6.43;5.82;;;1.60;99.90;;;;;;4993531;28;20054;-47
2022/03/27 06:13:17;;;;;;;6.93;6.22;;;1.60;99.90;;;;;;4993145;28;20266;-49
2022/03/27 06:15:43;;;;;;;8.23;6.07;;;1.70;99.90;;;;;;4992108;28;20029;-45
2022/03/27 06:18:12;;;;;;;6.53;5.93;;;1.80;99.90;;;;;;4993137;28;20034;-48
2022/03/27 06:20:40;;;;;;;8.30;6.65;;;1.80;99.90;;;;;;4993023;28;20037;-46
2022/03/27 06:23:06;;;;;;;9.15;6.75;;;1.90;99.90;;;;;;4992956;28;20062;-47
2022/03/27 06:25:33;;;;;;;7.80;6.18;;;1.90;99.90;;;;;;4992856;28;20030;-47
2022/03/27 06:27:59;;;;;;;7.30;6.53;;;1.90;99.90;;;;;;4992954;28;20037;-49
2022/03/27 06:30:27;;;;;;;8.85;6.88;;;2.00;99.90;;;;;;4992971;28;20065;-46
2022/03/27 06:32:53;;;;;;;7.03;6.15;;;2.00;99.90;;;;;;4992807;28;20113;-50
2022/03/27 06:35:21;;;;;;;8.68;6.88;;;2.10;99.90;;;;;;4993404;28;20034;-48
2022/03/27 06:37:52;;;;;;;7.35;6.32;;;2.10;99.90;;;;;;4993480;28;20031;-49
2022/03/27 06:40:19;;;;;;;7.38;5.72;;;2.20;99.90;;;;;;5012493;28;20026;-49
2022/03/27 06:42:45;;;;;;;6.97;6.35;;;2.20;99.90;;;;;;5008560;28;20029;-51
2022/03/27 06:45:13;;;;;;;7.38;6.47;;;2.30;99.90;;;;;;4991888;28;20562;-47
2022/03/27 06:47:40;;;;;;;8.48;7.18;;;2.40;99.90;;;;;;4993295;28;20523;-49
2022/03/27 06:50:06;;;;;;;28.25;7.53;;;2.50;99.90;;;;;;4991551;28;20117;-47
2022/03/27 06:52:33;;;;;;;8.32;7.45;;;2.50;99.90;;;;;;4992303;28;20023;-47
2022/03/27 06:54:59;;;;;;;8.13;6.95;;;2.60;99.90;;;;;;4991010;28;20113;-50
2022/03/27 06:57:24;;;;;;;8.02;6.18;;;2.70;99.90;;;;;;4990952;28;20125;-47
2022/03/27 07:05:20;;;;;;;17.13;6.82;;;2.90;99.90;;;;;;4992246;28;20096;-47
2022/03/27 07:07:46;;;;;;;12.38;7.53;;;2.90;99.90;;;;;;4991282;28;20042;-49
2022/03/27 07:10:12;;;;;;;11.05;6.93;;;3.00;99.90;;;;;;4991921;28;20117;-50
2022/03/27 07:12:42;;;;;;;13.75;8.35;;;3.10;99.90;;;;;;4991930;28;20034;-52
2022/03/27 07:15:09;;;;;;;13.02;9.15;;;3.20;99.90;;;;;;4991640;28;20054;-46
2022/03/27 07:17:46;;;;;;;20.08;9.30;;;3.30;99.90;;;;;;4991918;28;20045;-49
2022/03/27 07:20:16;;;;;;;13.45;8.07;;;3.40;99.90;;;;;;4991710;28;20102;-50
2022/03/27 07:22:41;;;;;;;14.23;9.40;;;3.60;99.90;;;;;;4991756;28;20034;-49
2022/03/27 07:25:09;;;;;;;11.43;8.48;;;3.70;99.90;;;;;;4991631;28;20113;-46
2022/03/27 07:27:34;;;;;;;11.65;8.60;;;3.80;99.90;;;;;;4992126;28;20145;-49
2022/03/27 07:30:00;;;;;;;15.40;8.98;;;3.80;99.90;;;;;;4991649;28;20070;-49
2022/03/27 07:32:25;;;;;;;14.32;9.45;;;3.90;99.90;;;;;;4991572;28;20041;-48
2022/03/27 07:34:51;;;;;;;16.42;8.90;;;4.10;99.90;;;;;;4991667;28;20542;-47
2022/03/27 07:37:16;;;;;;;16.98;9.38;;;4.20;99.90;;;;;;4990760;28;20503;-49
2022/03/27 07:39:42;;;;;;;12.68;8.00;;;4.30;99.90;;;;;;4991205;28;20398;-50
2022/03/27 07:42:08;;;;;;;13.77;8.15;;;4.40;99.90;;;;;;4991163;28;20481;-48
2022/03/27 07:44:34;;;;;;;10.82;9.43;;;4.50;99.90;;;;;;4991069;28;20033;-49
2022/03/27 07:46:59;;;;;;;13.65;8.52;;;4.50;99.90;;;;;;4991665;28;20042;-48
2022/03/27 07:49:26;;;;;;;13.15;9.30;;;4.60;99.90;;;;;;4991335;28;20492;-49
2022/03/27 07:51:53;;;;;;;15.75;9.30;;;4.60;99.90;;;;;;4991024;28;20033;-47
2022/03/27 07:54:19;;;;;;;14.02;9.63;;;4.70;99.90;;;;;;4990751;28;20037;-49
2022/03/27 07:56:44;;;;;;;12.52;8.50;;;4.70;99.90;;;;;;4990766;28;20030;-47
2022/03/27 07:59:10;;;;;;;13.52;9.15;;;4.80;99.90;;;;;;4994706;28;20030;-48
2022/03/27 08:01:35;;;;;;;11.23;8.45;;;4.90;99.90;;;;;;4995097;28;20034;-51
2022/03/27 08:04:02;;;;;;;13.60;9.57;;;5.00;99.90;;;;;;4990473;28;20037;-50
2022/03/27 08:06:29;;;;;;;11.70;8.63;;;5.10;99.90;;;;;;4990262;28;20014;-51
2022/03/27 08:08:56;;;;;;;14.57;10.25;;;5.20;99.90;;;;;;4991336;28;20068;-49
2022/03/27 08:11:23;;;;;;;12.82;10.10;;;5.30;99.90;;;;;;4990696;28;20472;-49
2022/03/27 08:13:49;;;;;;;19.63;10.88;;;5.30;99.90;;;;;;4990723;28;20122;-48
2022/03/27 08:16:15;;;;;;;14.43;10.32;;;5.40;99.90;;;;;;4990680;28;20125;-50
2022/03/27 08:18:41;;;;;;;13.90;11.13;;;5.40;99.90;;;;;;4991158;28;20117;-48
2022/03/27 08:21:06;;;;;;;16.63;11.43;;;5.50;99.90;;;;;;4990813;28;20114;-49
2022/03/27 08:23:32;;;;;;;15.35;10.43;;;5.70;99.90;;;;;;5001037;28;20400;-49
2022/03/27 08:28:43;;;;;;;24.88;12.73;;;5.80;99.90;;;;;;5005511;28;20034;-47
2022/03/27 08:31:09;;;;;;;21.58;12.57;;;5.90;99.90;;;;;;4993864;28;20042;-49
2022/03/27 08:33:34;;;;;;;19.55;12.23;;;6.00;99.90;;;;;;4993142;28;20524;-50
2022/03/27 08:36:00;;;;;;;20.45;12.63;;;6.00;99.90;;;;;;5024685;28;20029;-48
2022/03/27 08:38:26;;;;;;;18.88;12.27;;;6.10;99.90;;;;;;5006936;28;20124;-49
2022/03/27 08:40:54;;;;;;;25.95;12.80;;;6.20;99.90;;;;;;4990463;28;20077;-47
2022/03/27 08:43:19;;;;;;;24.55;12.75;;;6.30;99.90;;;;;;4971021;28;20031;-48
2022/03/27 08:45:45;;;;;;;24.73;11.90;;;6.30;99.90;;;;;;4971402;28;20193;-50
2022/03/27 08:48:12;;;;;;;16.63;11.73;;;6.50;99.90;;;;;;4989827;28;20026;-49
2022/03/27 08:50:49;;;;;;;21.95;10.90;;;6.60;99.90;;;;;;4990339;28;20035;-48
2022/03/27 08:53:28;;;;;;;26.20;12.45;;;6.70;99.90;;;;;;4990082;28;20105;-48
2022/03/27 08:56:06;;;;;;;33.05;13.18;;;6.80;99.90;;;;;;4990179;28;20114;-49
2022/03/27 08:58:31;;;;;;;32.22;13.43;;;6.80;99.90;;;;;;4990037;28;20404;-48
2022/03/27 09:00:57;;;;;;;23.98;11.52;;;6.80;99.90;;;;;;4990402;28;20026;-48
2022/03/27 09:03:23;;;;;;;25.07;11.97;;;6.80;99.90;;;;;;4989522;28;20026;-50
2022/03/27 09:05:49;;;;;;;26.15;12.18;;;6.90;99.90;;;;;;4988622;28;20088;-48
2022/03/27 09:08:15;;;;;;;22.50;11.73;;;7.10;99.90;;;;;;4988833;28;20058;-48
2022/03/27 09:10:41;;;;;;;21.80;11.10;;;7.20;99.90;;;;;;4990253;28;20472;-48
2022/03/27 09:13:16;;;;;;;27.77;12.38;;;7.40;99.90;;;;;;4989081;28;20034;-47
2022/03/27 09:15:43;;;;;;;29.48;12.10;;;7.50;99.90;;;;;;4989646;28;20080;-51
2022/03/27 09:18:11;;;;;;;24.77;12.68;;;7.80;99.90;;;;;;4989561;28;20034;-49
2022/03/27 09:20:44;;;;;;;19.20;10.43;;;8.10;99.90;;;;;;4989389;28;20397;-49
2022/03/27 09:23:21;;;;;;;29.63;12.27;;;8.30;99.90;;;;;;4990054;28;20400;-49
2022/03/27 09:25:55;;;;;;;24.42;11.45;;;8.50;99.90;;;;;;4989413;28;20027;-52
2022/03/27 09:28:28;;;;;;;32.85;11.60;;;8.60;99.90;;;;;;4990184;28;20025;-50
2022/03/27 09:30:55;;;;;;;22.33;10.93;;;8.60;99.90;;;;;;4989390;28;20034;-53
2022/03/27 09:33:31;;;;;;;28.73;10.85;;;8.70;99.90;;;;;;4989690;28;20026;-48
2022/03/27 09:36:11;;;;;;;27.25;12.38;;;8.70;99.90;;;;;;4989403;28;20026;-48
2022/03/27 09:38:37;;;;;;;22.55;11.32;;;8.80;99.90;;;;;;4990598;28;20380;-49
2022/03/27 09:41:04;;;;;;;27.80;11.23;;;8.80;99.90;;;;;;4989703;28;20235;-48
2022/03/27 09:43:29;;;;;;;24.77;12.52;;;9.10;99.90;;;;;;4989729;28;20029;-48
2022/03/27 09:46:03;;;;;;;26.65;11.40;;;9.30;99.90;;;;;;4989767;28;20400;-48
2022/03/27 09:48:31;;;;;;;24.40;10.75;;;9.50;99.90;;;;;;4990227;28;20547;-50
2022/03/27 09:51:01;;;;;;;21.08;10.63;;;9.70;99.90;;;;;;4989455;28;20030;-51
2022/03/27 09:53:29;;;;;;;19.17;10.10;;;9.80;99.90;;;;;;4989362;28;20023;-48
2022/03/27 09:55:58;;;;;;;16.58;10.20;;;10.00;99.90;;;;;;4990036;28;20022;-48
2022/03/27 09:58:46;;;;;;;25.25;10.25;;;10.20;99.90;;;;;;4989806;28;20054;-48
2022/03/27 10:01:25;;;;;;;24.55;9.70;;;10.40;99.90;;;;;;4989892;28;20050;-50
2022/03/27 10:03:59;;;;;;;21.42;9.05;;;10.60;99.90;;;;;;4988966;28;20026;-52
2022/03/27 10:06:31;;;;;;;19.33;9.25;;;10.70;99.90;;;;;;4989519;28;20022;-48
2022/03/27 10:08:58;;;;;;;20.25;10.32;;;10.80;99.90;;;;;;4988917;28;20118;-55
2022/03/27 10:11:24;;;;;;;16.25;7.63;;;10.90;99.90;;;;;;4990158;28;20023;-51
2022/03/27 10:13:54;;;;;;;20.20;8.88;;;11.00;99.90;;;;;;4988916;28;20061;-48
2022/03/27 10:16:32;;;;;;;14.93;7.90;;;11.00;99.90;;;;;;4989615;28;20092;-49
2022/03/27 10:19:09;;;;;;;18.30;9.13;;;11.10;99.90;;;;;;4989457;28;20034;-50
2022/03/27 10:21:36;;;;;;;17.88;7.20;;;11.10;99.90;;;;;;4989765;28;20096;-49
2022/03/27 10:24:11;;;;;;;12.63;6.88;;;11.10;99.90;;;;;;4989447;28;20037;-51
2022/03/27 10:26:38;;;;;;;15.77;6.88;;;11.20;99.90;;;;;;4993201;28;20452;-50
2022/03/27 10:29:05;;;;;;;13.73;6.13;;;11.30;99.90;;;;;;4994723;28;20399;-48
2022/03/27 10:31:31;;;;;;;16.35;6.45;;;11.30;99.90;;;;;;5012653;28;20030;-47
2022/03/27 10:33:59;;;;;;;12.65;6.88;;;11.30;99.90;;;;;;5012992;28;20558;-49
2022/03/27 10:36:34;;;;;;;16.00;7.45;;;11.20;99.90;;;;;;5010528;28;20581;-52
2022/03/27 10:39:10;;;;;;;16.00;6.45;;;11.20;99.90;;;;;;4990748;28;20038;-52
2022/03/27 10:41:48;;;;;;;10.15;6.80;;;11.30;99.90;;;;;;4992021;28;20034;-49
2022/03/27 10:44:28;;;;;;;15.07;7.50;;;11.40;99.90;;;;;;4992209;28;20520;-49
2022/03/27 10:47:13;;;;;;;11.40;6.65;;;11.50;99.90;;;;;;4992365;28;20110;-52
2022/03/27 10:49:40;;;;;;;11.90;6.15;;;11.40;99.90;;;;;;4992885;28;20074;-49
2022/03/27 10:52:06;;;;;;;16.80;6.13;;;11.50;99.90;;;;;;4992756;28;20060;-52
2022/03/27 10:54:52;;;;;;;16.92;6.20;;;11.70;99.90;;;;;;4991352;28;20101;-54
2022/03/27 10:57:31;;;;;;;13.88;6.32;;;11.80;99.90;;;;;;4992884;28;20026;-47
2022/03/27 10:59:57;;;;;;;14.32;6.22;;;11.70;99.90;;;;;;4992892;28;20103;-54
2022/03/27 11:02:47;;;;;;;13.45;6.85;;;11.80;99.90;;;;;;4992566;28;20032;-50
2022/03/27 11:05:31;;;;;;;12.45;6.68;;;11.80;99.90;;;;;;4988884;28;20042;-49
2022/03/27 11:08:18;;;;;;;16.98;6.60;;;12.00;99.90;;;;;;4992117;28;20025;-53
2022/03/27 11:10:50;;;;;;;12.02;6.78;;;12.10;99.90;;;;;;4992665;28;20591;-50
2022/03/27 11:13:28;;;;;;;13.23;6.10;;;12.10;99.90;;;;;;4992225;28;20026;-51
2022/03/27 11:16:10;;;;;;;10.65;6.65;;;12.20;99.90;;;;;;5018721;23;20125;-51
2022/03/27 11:18:36;;;;;;;15.25;6.78;;;12.20;99.90;;;;;;5011751;28;20108;-53
2022/03/27 11:21:02;;;;;;;13.98;6.75;;;12.10;99.90;;;;;;5011872;28;20101;-54
2022/03/27 11:23:29;;;;;;;8.63;6.10;;;12.30;99.90;;;;;;5011330;28;20030;-51
2022/03/27 11:25:57;;;;;;;13.40;6.55;;;12.30;99.90;;;;;;5016518;28;20037;-52
2022/03/27 11:28:22;;;;;;;11.70;6.55;;;12.20;99.90;;;;;;5030686;28;20037;-50
2022/03/27 11:30:48;;;;;;;11.10;6.85;;;12.00;99.90;;;;;;5031834;28;20025;-51
2022/03/27 11:33:22;;;;;;;10.77;6.90;;;12.00;99.90;;;;;;5031221;28;20538;-52
2022/03/27 11:36:09;;;;;;;10.80;5.97;;;12.00;99.90;;;;;;5030915;28;20029;-52
2022/03/27 11:38:52;;;;;;;12.82;7.00;;;12.10;99.90;;;;;;5031340;28;20439;-49
2022/03/27 11:41:24;;;;;;;13.60;7.13;;;12.10;99.90;;;;;;5031279;28;20021;-52
2022/03/27 11:43:51;;;;;;;11.73;7.38;;;12.10;99.90;;;;;;5030564;28;20018;-53
2022/03/27 11:46:27;;;;;;;13.55;7.53;;;12.00;99.90;;;;;;5031187;28;20025;-51
2022/03/27 11:49:00;;;;;;;11.95;7.07;;;11.80;99.90;;;;;;5031599;28;20037;-52
2022/03/27 11:51:27;;;;;;;11.55;8.02;;;11.90;99.90;;;;;;5031586;28;20022;-51
2022/03/27 11:53:55;;;;;;;11.15;8.00;;;11.80;99.90;;;;;;5031565;28;20032;-52
2022/03/27 11:56:21;;;;;;;14.48;8.05;;;11.90;99.90;;;;;;5031165;28;20565;-54
2022/03/27 11:59:04;;;;;;;11.13;7.38;;;11.90;99.90;;;;;;5031072;28;20033;-51
2022/03/27 12:01:30;;;;;;;12.10;7.72;;;12.00;99.90;;;;;;5031184;28;20037;-51
2022/03/27 12:03:59;;;;;;;10.27;6.32;;;12.20;99.90;;;;;;5030603;28;20034;-53
2022/03/27 12:06:29;;;;;;;15.32;7.35;;;12.30;99.90;;;;;;5030118;28;20037;-56
2022/03/27 12:08:56;;;;;;;12.40;6.82;;;12.40;99.90;;;;;;5030950;28;20029;-53
2022/03/27 12:11:23;;;;;;;11.93;6.90;;;12.50;99.90;;;;;;5030878;28;20064;-52
2022/03/27 12:13:50;;;;;;;10.45;7.00;;;12.70;99.90;;;;;;5030480;28;20021;-52
2022/03/27 12:16:21;;;;;;;11.25;6.82;;;12.70;99.90;;;;;;5030900;28;20060;-53
2022/03/27 12:18:47;;;;;;;8.52;5.72;;;12.70;99.90;;;;;;5030922;28;20013;-54
2022/03/27 12:21:15;;;;;;;11.57;6.75;;;12.80;99.90;;;;;;5030981;28;20021;-52
2022/03/27 12:23:52;;;;;;;11.38;6.45;;;12.80;99.90;;;;;;5030412;28;20108;-51
2022/03/27 12:32:02;;;;;;;12.20;6.32;;;13.00;99.90;;;;;;5030812;28;20072;-53
2022/03/27 12:34:27;;;;;;;10.80;6.00;;;13.10;99.90;;;;;;5030741;28;20032;-54
2022/03/27 12:37:09;;;;;;;11.85;6.35;;;13.10;99.90;;;;;;5030003;28;20025;-50
2022/03/27 12:39:55;;;;;;;8.18;5.82;;;13.00;99.90;;;;;;5029032;28;20018;-52
2022/03/27 12:42:32;;;;;;;8.63;5.50;;;12.90;99.90;;;;;;5020387;28;20713;-55
2022/03/27 12:45:06;;;;;;;10.15;5.95;;;12.80;99.90;;;;;;5030215;28;20067;-51
2022/03/27 12:48:13;;;;;;;8.23;6.22;;;12.80;99.90;;;;;;5029621;28;20013;-51
2022/03/27 12:50:41;;;;;;;8.80;5.78;;;12.80;99.90;;;;;;5030078;28;20064;-50
2022/03/27 12:53:25;;;;;;;9.52;6.03;;;12.90;99.90;;;;;;5028718;28;20049;-52
2022/03/27 12:55:57;;;;;;;9.13;5.40;;;12.90;99.90;;;;;;5029913;28;20029;-53
2022/03/27 12:58:32;;;;;;;8.32;5.28;;;13.00;99.90;;;;;;5030263;28;20021;-51
2022/03/27 13:01:11;;;;;;;9.65;4.97;;;13.10;99.90;;;;;;5030480;28;20132;-54
2022/03/27 13:03:38;;;;;;;8.85;5.22;;;12.90;99.90;;;;;;5029679;28;20021;-52
2022/03/27 13:06:06;;;;;;;7.25;4.57;;;13.00;99.90;;;;;;5030096;28;20025;-52
2022/03/27 13:08:40;;;;;;;9.85;5.25;;;13.00;99.90;;;;;;5029827;28;20105;-54
2022/03/27 13:11:10;;;;;;;6.55;5.85;;;13.10;99.90;;;;;;5030112;28;20021;-52